sensor_id;sensor_type;location;lat;lon;timestamp;P1;durP1;ratioP1;P2;durP2;ratioP2
36629;SDS011;36256;42.154;23.002;2024-03-08T00:00:00;9.43;;;5.72;;
36629;SDS011;36256;42.154;23.002;2024-03-08T00:02:36;6.75;;;4.32;;
36629;SDS011;36256;42.154;23.002;2024-03-08T00:05:04;6.45;;;4.40;;
36629;SDS011;36256;42.154;23.002;2024-03-08T00:07:31;6.45;;;4.50;;
36629;SDS011;36256;42.154;23.002;2024-03-08T00:09:58;7.30;;;4.72;;
36629;SDS011;36256;42.154;23.002;2024-03-08T00:12:29;6.80;;;4.35;;
36629;SDS011;36256;42.154;23.002;2024-03-08T00:14:56;6.38;;;4.43;;
36629;SDS011;36256;42.154;23.002;2024-03-08T00:17:24;7.57;;;4.70;;
36629;SDS011;36256;42.154;23.002;2024-03-08T00:19:54;9.70;;;6.45;;
36629;SDS011;36256;42.154;23.002;2024-03-08T00:22:20;10.02;;;6.95;;
36629;SDS011;36256;42.154;23.002;2024-03-08T00:24:48;11.18;;;7.32;;
36629;SDS011;36256;42.154;23.002;2024-03-08T00:27:17;10.18;;;7.15;;
36629;SDS011;36256;42.154;23.002;2024-03-08T00:29:47;11.70;;;7.90;;
36629;SDS011;36256;42.154;23.002;2024-03-08T00:32:15;15.90;;;10.48;;
36629;SDS011;36256;42.154;23.002;2024-03-08T00:34:43;11.45;;;6.80;;
36629;SDS011;36256;42.154;23.002;2024-03-08T00:37:10;11.25;;;5.80;;
36629;SDS011;36256;42.154;23.002;2024-03-08T00:39:38;9.02;;;5.85;;
36629;SDS011;36256;42.154;23.002;2024-03-08T00:42:04;8.90;;;6.05;;
36629;SDS011;36256;42.154;23.002;2024-03-08T00:44:31;5.55;;;4.00;;
36629;SDS011;36256;42.154;23.002;2024-03-08T00:46:58;7.47;;;5.32;;
36629;SDS011;36256;42.154;23.002;2024-03-08T00:49:25;9.20;;;5.30;;
36629;SDS011;36256;42.154;23.002;2024-03-08T00:51:52;8.60;;;4.90;;
36629;SDS011;36256;42.154;23.002;2024-03-08T00:54:21;6.93;;;5.07;;
36629;SDS011;36256;42.154;23.002;2024-03-08T00:56:47;7.82;;;5.40;;
36629;SDS011;36256;42.154;23.002;2024-03-08T00:59:14;7.90;;;5.07;;
36629;SDS011;36256;42.154;23.002;2024-03-08T01:01:41;8.02;;;4.90;;
36629;SDS011;36256;42.154;23.002;2024-03-08T01:04:08;7.50;;;5.35;;
36629;SDS011;36256;42.154;23.002;2024-03-08T01:06:34;7.50;;;5.60;;
36629;SDS011;36256;42.154;23.002;2024-03-08T01:09:06;6.43;;;4.85;;
36629;SDS011;36256;42.154;23.002;2024-03-08T01:11:33;8.65;;;5.15;;
36629;SDS011;36256;42.154;23.002;2024-03-08T01:14:00;8.52;;;5.18;;
36629;SDS011;36256;42.154;23.002;2024-03-08T01:16:27;9.07;;;5.22;;
36629;SDS011;36256;42.154;23.002;2024-03-08T01:19:03;6.78;;;4.50;;
36629;SDS011;36256;42.154;23.002;2024-03-08T01:21:30;7.93;;;5.03;;
36629;SDS011;36256;42.154;23.002;2024-03-08T01:23:57;7.45;;;5.05;;
36629;SDS011;36256;42.154;23.002;2024-03-08T01:26:28;9.48;;;5.00;;
36629;SDS011;36256;42.154;23.002;2024-03-08T01:28:55;8.80;;;5.00;;
36629;SDS011;36256;42.154;23.002;2024-03-08T01:31:22;7.70;;;4.57;;
36629;SDS011;36256;42.154;23.002;2024-03-08T01:33:52;6.90;;;4.68;;
36629;SDS011;36256;42.154;23.002;2024-03-08T01:38:46;7.32;;;4.97;;
36629;SDS011;36256;42.154;23.002;2024-03-08T01:41:13;8.45;;;5.50;;
36629;SDS011;36256;42.154;23.002;2024-03-08T01:46:07;9.48;;;6.03;;
36629;SDS011;36256;42.154;23.002;2024-03-08T01:48:35;8.05;;;5.70;;
36629;SDS011;36256;42.154;23.002;2024-03-08T01:51:03;9.40;;;6.05;;
36629;SDS011;36256;42.154;23.002;2024-03-08T01:53:31;9.90;;;5.68;;
36629;SDS011;36256;42.154;23.002;2024-03-08T01:55:58;10.88;;;6.45;;
36629;SDS011;36256;42.154;23.002;2024-03-08T01:58:29;10.45;;;6.13;;
36629;SDS011;36256;42.154;23.002;2024-03-08T02:00:56;8.45;;;5.65;;
36629;SDS011;36256;42.154;23.002;2024-03-08T02:03:32;9.37;;;5.97;;
36629;SDS011;36256;42.154;23.002;2024-03-08T02:05:59;8.32;;;5.20;;
36629;SDS011;36256;42.154;23.002;2024-03-08T02:08:26;9.38;;;6.63;;
36629;SDS011;36256;42.154;23.002;2024-03-08T02:10:52;9.43;;;5.88;;
36629;SDS011;36256;42.154;23.002;2024-03-08T02:13:19;8.82;;;5.50;;
36629;SDS011;36256;42.154;23.002;2024-03-08T02:15:56;10.23;;;5.85;;
36629;SDS011;36256;42.154;23.002;2024-03-08T02:18:28;8.63;;;6.35;;
36629;SDS011;36256;42.154;23.002;2024-03-08T02:20:56;8.18;;;5.75;;
36629;SDS011;36256;42.154;23.002;2024-03-08T02:23:25;8.60;;;5.80;;
36629;SDS011;36256;42.154;23.002;2024-03-08T02:25:54;11.90;;;5.72;;
36629;SDS011;36256;42.154;23.002;2024-03-08T02:28:25;7.07;;;5.65;;
36629;SDS011;36256;42.154;23.002;2024-03-08T02:30:52;8.70;;;6.43;;
36629;SDS011;36256;42.154;23.002;2024-03-08T02:33:23;8.13;;;5.65;;
36629;SDS011;36256;42.154;23.002;2024-03-08T02:35:54;7.90;;;6.07;;
36629;SDS011;36256;42.154;23.002;2024-03-08T02:38:22;8.23;;;5.70;;
36629;SDS011;36256;42.154;23.002;2024-03-08T02:40:52;8.95;;;5.45;;
36629;SDS011;36256;42.154;23.002;2024-03-08T02:43:20;8.07;;;6.15;;
36629;SDS011;36256;42.154;23.002;2024-03-08T02:45:51;8.73;;;6.30;;
36629;SDS011;36256;42.154;23.002;2024-03-08T02:48:19;8.63;;;6.00;;
36629;SDS011;36256;42.154;23.002;2024-03-08T02:50:49;9.15;;;6.50;;
36629;SDS011;36256;42.154;23.002;2024-03-08T02:53:18;9.23;;;6.10;;
36629;SDS011;36256;42.154;23.002;2024-03-08T02:55:48;7.97;;;5.85;;
36629;SDS011;36256;42.154;23.002;2024-03-08T02:58:15;10.65;;;6.68;;
36629;SDS011;36256;42.154;23.002;2024-03-08T03:01:05;12.27;;;6.45;;
36629;SDS011;36256;42.154;23.002;2024-03-08T03:03:33;11.15;;;7.20;;
36629;SDS011;36256;42.154;23.002;2024-03-08T03:06:00;10.00;;;6.55;;
36629;SDS011;36256;42.154;23.002;2024-03-08T03:08:27;9.65;;;6.15;;
36629;SDS011;36256;42.154;23.002;2024-03-08T03:10:54;7.85;;;6.15;;
36629;SDS011;36256;42.154;23.002;2024-03-08T03:13:23;9.73;;;6.85;;
36629;SDS011;36256;42.154;23.002;2024-03-08T03:15:50;9.88;;;6.47;;
36629;SDS011;36256;42.154;23.002;2024-03-08T03:20:48;10.05;;;7.18;;
36629;SDS011;36256;42.154;23.002;2024-03-08T03:23:15;12.25;;;6.95;;
36629;SDS011;36256;42.154;23.002;2024-03-08T03:25:47;12.60;;;7.10;;
36629;SDS011;36256;42.154;23.002;2024-03-08T03:28:14;9.80;;;6.75;;
36629;SDS011;36256;42.154;23.002;2024-03-08T03:30:45;12.45;;;7.60;;
36629;SDS011;36256;42.154;23.002;2024-03-08T03:33:13;13.13;;;7.85;;
36629;SDS011;36256;42.154;23.002;2024-03-08T03:35:42;11.23;;;7.45;;
36629;SDS011;36256;42.154;23.002;2024-03-08T03:38:12;10.80;;;7.18;;
36629;SDS011;36256;42.154;23.002;2024-03-08T03:40:46;11.10;;;7.68;;
36629;SDS011;36256;42.154;23.002;2024-03-08T03:43:14;11.00;;;7.30;;
36629;SDS011;36256;42.154;23.002;2024-03-08T03:45:44;10.75;;;7.20;;
36629;SDS011;36256;42.154;23.002;2024-03-08T03:48:11;12.20;;;7.05;;
36629;SDS011;36256;42.154;23.002;2024-03-08T03:50:38;11.38;;;7.63;;
36629;SDS011;36256;42.154;23.002;2024-03-08T03:53:06;14.02;;;8.07;;
36629;SDS011;36256;42.154;23.002;2024-03-08T03:55:37;14.18;;;8.15;;
36629;SDS011;36256;42.154;23.002;2024-03-08T03:58:06;19.60;;;13.13;;
36629;SDS011;36256;42.154;23.002;2024-03-08T04:00:35;17.30;;;11.10;;
36629;SDS011;36256;42.154;23.002;2024-03-08T04:03:01;44.40;;;31.75;;
36629;SDS011;36256;42.154;23.002;2024-03-08T04:05:28;17.38;;;13.73;;
36629;SDS011;36256;42.154;23.002;2024-03-08T04:07:55;14.82;;;10.95;;
36629;SDS011;36256;42.154;23.002;2024-03-08T04:10:23;15.73;;;10.27;;
36629;SDS011;36256;42.154;23.002;2024-03-08T04:12:58;14.35;;;9.35;;
36629;SDS011;36256;42.154;23.002;2024-03-08T04:15:24;15.75;;;11.30;;
36629;SDS011;36256;42.154;23.002;2024-03-08T04:17:52;16.95;;;10.75;;
36629;SDS011;36256;42.154;23.002;2024-03-08T04:20:19;15.75;;;10.60;;
36629;SDS011;36256;42.154;23.002;2024-03-08T04:22:47;17.60;;;10.40;;
36629;SDS011;36256;42.154;23.002;2024-03-08T04:25:15;16.67;;;11.63;;
36629;SDS011;36256;42.154;23.002;2024-03-08T04:27:42;19.48;;;13.00;;
36629;SDS011;36256;42.154;23.002;2024-03-08T04:30:10;22.33;;;12.43;;
36629;SDS011;36256;42.154;23.002;2024-03-08T04:32:38;13.75;;;10.07;;
36629;SDS011;36256;42.154;23.002;2024-03-08T04:35:05;13.10;;;9.23;;
36629;SDS011;36256;42.154;23.002;2024-03-08T04:37:32;12.50;;;9.20;;
36629;SDS011;36256;42.154;23.002;2024-03-08T04:39:59;7.80;;;5.43;;
36629;SDS011;36256;42.154;23.002;2024-03-08T04:42:28;11.02;;;7.40;;
36629;SDS011;36256;42.154;23.002;2024-03-08T04:44:56;10.15;;;7.10;;
36629;SDS011;36256;42.154;23.002;2024-03-08T04:47:24;12.85;;;8.25;;
36629;SDS011;36256;42.154;23.002;2024-03-08T04:49:54;12.52;;;9.15;;
36629;SDS011;36256;42.154;23.002;2024-03-08T04:52:22;11.38;;;7.40;;
36629;SDS011;36256;42.154;23.002;2024-03-08T04:54:49;11.32;;;7.22;;
36629;SDS011;36256;42.154;23.002;2024-03-08T04:57:16;8.65;;;5.78;;
36629;SDS011;36256;42.154;23.002;2024-03-08T04:59:45;9.00;;;6.15;;
36629;SDS011;36256;42.154;23.002;2024-03-08T05:02:12;10.90;;;6.45;;
36629;SDS011;36256;42.154;23.002;2024-03-08T05:04:39;7.18;;;4.95;;
36629;SDS011;36256;42.154;23.002;2024-03-08T05:07:05;8.00;;;5.35;;
36629;SDS011;36256;42.154;23.002;2024-03-08T05:09:32;7.75;;;5.55;;
36629;SDS011;36256;42.154;23.002;2024-03-08T05:12:00;9.68;;;5.45;;
36629;SDS011;36256;42.154;23.002;2024-03-08T05:14:28;9.35;;;5.10;;
36629;SDS011;36256;42.154;23.002;2024-03-08T05:16:55;8.50;;;6.13;;
36629;SDS011;36256;42.154;23.002;2024-03-08T05:19:22;8.65;;;5.80;;
36629;SDS011;36256;42.154;23.002;2024-03-08T05:21:50;6.63;;;4.78;;
36629;SDS011;36256;42.154;23.002;2024-03-08T05:24:17;7.22;;;5.05;;
36629;SDS011;36256;42.154;23.002;2024-03-08T05:26:45;8.40;;;5.47;;
36629;SDS011;36256;42.154;23.002;2024-03-08T05:29:13;8.57;;;5.70;;
36629;SDS011;36256;42.154;23.002;2024-03-08T05:31:50;7.03;;;4.72;;
36629;SDS011;36256;42.154;23.002;2024-03-08T05:34:21;7.63;;;4.70;;
36629;SDS011;36256;42.154;23.002;2024-03-08T05:36:49;7.72;;;5.03;;
36629;SDS011;36256;42.154;23.002;2024-03-08T05:39:17;7.03;;;5.15;;
36629;SDS011;36256;42.154;23.002;2024-03-08T05:41:48;7.38;;;4.90;;
36629;SDS011;36256;42.154;23.002;2024-03-08T05:44:15;7.03;;;4.82;;
36629;SDS011;36256;42.154;23.002;2024-03-08T05:46:45;5.80;;;4.20;;
36629;SDS011;36256;42.154;23.002;2024-03-08T05:49:13;7.75;;;4.70;;
36629;SDS011;36256;42.154;23.002;2024-03-08T05:51:41;8.48;;;4.95;;
36629;SDS011;36256;42.154;23.002;2024-03-08T05:54:09;6.93;;;4.30;;
36629;SDS011;36256;42.154;23.002;2024-03-08T05:56:42;7.10;;;4.57;;
36629;SDS011;36256;42.154;23.002;2024-03-08T05:59:11;8.10;;;6.10;;
36629;SDS011;36256;42.154;23.002;2024-03-08T06:04:08;10.10;;;7.47;;
36629;SDS011;36256;42.154;23.002;2024-03-08T06:06:38;5.38;;;3.92;;
36629;SDS011;36256;42.154;23.002;2024-03-08T06:09:12;6.70;;;4.70;;
36629;SDS011;36256;42.154;23.002;2024-03-08T06:11:44;6.35;;;4.28;;
36629;SDS011;36256;42.154;23.002;2024-03-08T06:14:17;5.03;;;3.80;;
36629;SDS011;36256;42.154;23.002;2024-03-08T06:16:47;5.70;;;4.15;;
36629;SDS011;36256;42.154;23.002;2024-03-08T06:19:16;4.95;;;3.70;;
36629;SDS011;36256;42.154;23.002;2024-03-08T06:21:43;5.22;;;4.03;;
36629;SDS011;36256;42.154;23.002;2024-03-08T06:24:17;5.65;;;4.07;;
36629;SDS011;36256;42.154;23.002;2024-03-08T06:26:44;4.70;;;3.22;;
36629;SDS011;36256;42.154;23.002;2024-03-08T06:29:11;7.15;;;4.07;;
36629;SDS011;36256;42.154;23.002;2024-03-08T06:31:39;5.07;;;3.42;;
36629;SDS011;36256;42.154;23.002;2024-03-08T06:34:06;8.02;;;3.45;;
36629;SDS011;36256;42.154;23.002;2024-03-08T06:36:35;6.13;;;4.30;;
36629;SDS011;36256;42.154;23.002;2024-03-08T06:39:04;6.72;;;4.18;;
36629;SDS011;36256;42.154;23.002;2024-03-08T06:41:36;5.65;;;3.90;;
36629;SDS011;36256;42.154;23.002;2024-03-08T06:44:03;7.07;;;4.28;;
36629;SDS011;36256;42.154;23.002;2024-03-08T06:46:30;7.70;;;4.95;;
36629;SDS011;36256;42.154;23.002;2024-03-08T06:48:57;5.78;;;4.13;;
36629;SDS011;36256;42.154;23.002;2024-03-08T06:51:24;6.20;;;3.97;;
36629;SDS011;36256;42.154;23.002;2024-03-08T06:53:51;8.50;;;4.15;;
36629;SDS011;36256;42.154;23.002;2024-03-08T06:56:18;7.47;;;4.30;;
36629;SDS011;36256;42.154;23.002;2024-03-08T06:58:45;12.65;;;9.95;;
36629;SDS011;36256;42.154;23.002;2024-03-08T07:01:13;9.00;;;5.60;;
36629;SDS011;36256;42.154;23.002;2024-03-08T07:03:41;5.75;;;3.75;;
36629;SDS011;36256;42.154;23.002;2024-03-08T07:06:10;6.70;;;4.00;;
36629;SDS011;36256;42.154;23.002;2024-03-08T07:08:38;4.88;;;3.75;;
36629;SDS011;36256;42.154;23.002;2024-03-08T07:11:07;6.22;;;3.97;;
36629;SDS011;36256;42.154;23.002;2024-03-08T07:13:42;5.47;;;3.70;;
36629;SDS011;36256;42.154;23.002;2024-03-08T07:16:09;7.40;;;4.65;;
36629;SDS011;36256;42.154;23.002;2024-03-08T07:18:39;6.88;;;4.65;;
36629;SDS011;36256;42.154;23.002;2024-03-08T07:21:18;8.60;;;4.97;;
36629;SDS011;36256;42.154;23.002;2024-03-08T07:23:46;10.85;;;5.55;;
36629;SDS011;36256;42.154;23.002;2024-03-08T07:26:20;8.43;;;5.00;;
36629;SDS011;36256;42.154;23.002;2024-03-08T07:28:47;4.65;;;3.63;;
36629;SDS011;36256;42.154;23.002;2024-03-08T07:31:13;6.70;;;3.80;;
36629;SDS011;36256;42.154;23.002;2024-03-08T07:33:52;5.53;;;3.38;;
36629;SDS011;36256;42.154;23.002;2024-03-08T07:36:19;5.10;;;3.10;;
36629;SDS011;36256;42.154;23.002;2024-03-08T07:38:48;5.93;;;3.25;;
36629;SDS011;36256;42.154;23.002;2024-03-08T07:41:15;5.63;;;3.17;;
36629;SDS011;36256;42.154;23.002;2024-03-08T07:46:09;6.22;;;3.30;;
36629;SDS011;36256;42.154;23.002;2024-03-08T07:51:03;4.35;;;3.30;;
36629;SDS011;36256;42.154;23.002;2024-03-08T07:53:30;7.70;;;3.22;;
36629;SDS011;36256;42.154;23.002;2024-03-08T07:55:57;4.55;;;3.00;;
36629;SDS011;36256;42.154;23.002;2024-03-08T07:58:24;4.10;;;2.80;;
36629;SDS011;36256;42.154;23.002;2024-03-08T08:00:51;4.20;;;2.80;;
36629;SDS011;36256;42.154;23.002;2024-03-08T08:03:17;4.50;;;3.10;;
36629;SDS011;36256;42.154;23.002;2024-03-08T08:05:47;3.58;;;2.70;;
36629;SDS011;36256;42.154;23.002;2024-03-08T08:08:15;4.40;;;2.70;;
36629;SDS011;36256;42.154;23.002;2024-03-08T08:10:49;3.80;;;2.72;;
36629;SDS011;36256;42.154;23.002;2024-03-08T08:13:16;4.13;;;2.72;;
36629;SDS011;36256;42.154;23.002;2024-03-08T08:15:44;3.78;;;2.55;;
36629;SDS011;36256;42.154;23.002;2024-03-08T08:18:18;2.78;;;2.20;;
36629;SDS011;36256;42.154;23.002;2024-03-08T08:21:10;4.70;;;2.83;;
36629;SDS011;36256;42.154;23.002;2024-03-08T08:23:39;6.38;;;2.92;;
36629;SDS011;36256;42.154;23.002;2024-03-08T08:26:06;3.03;;;2.30;;
36629;SDS011;36256;42.154;23.002;2024-03-08T08:28:34;3.45;;;2.42;;
36629;SDS011;36256;42.154;23.002;2024-03-08T08:31:00;3.20;;;2.30;;
36629;SDS011;36256;42.154;23.002;2024-03-08T08:33:27;5.15;;;2.78;;
36629;SDS011;36256;42.154;23.002;2024-03-08T08:35:54;3.90;;;2.45;;
36629;SDS011;36256;42.154;23.002;2024-03-08T08:38:24;4.28;;;2.70;;
36629;SDS011;36256;42.154;23.002;2024-03-08T08:40:51;4.05;;;2.70;;
36629;SDS011;36256;42.154;23.002;2024-03-08T08:43:19;3.08;;;2.55;;
36629;SDS011;36256;42.154;23.002;2024-03-08T08:45:47;4.03;;;2.80;;
36629;SDS011;36256;42.154;23.002;2024-03-08T08:48:21;4.60;;;2.63;;
36629;SDS011;36256;42.154;23.002;2024-03-08T08:50:47;5.53;;;3.35;;
36629;SDS011;36256;42.154;23.002;2024-03-08T08:53:14;8.48;;;3.20;;
36629;SDS011;36256;42.154;23.002;2024-03-08T08:55:43;5.10;;;2.45;;
36629;SDS011;36256;42.154;23.002;2024-03-08T08:58:12;4.00;;;2.63;;
36629;SDS011;36256;42.154;23.002;2024-03-08T09:00:40;5.07;;;2.88;;
36629;SDS011;36256;42.154;23.002;2024-03-08T09:03:06;4.13;;;2.95;;
36629;SDS011;36256;42.154;23.002;2024-03-08T09:05:33;5.32;;;2.90;;
36629;SDS011;36256;42.154;23.002;2024-03-08T09:08:04;3.50;;;2.70;;
36629;SDS011;36256;42.154;23.002;2024-03-08T09:10:31;5.63;;;2.70;;
36629;SDS011;36256;42.154;23.002;2024-03-08T09:12:58;7.00;;;3.05;;
36629;SDS011;36256;42.154;23.002;2024-03-08T09:15:26;4.60;;;2.95;;
36629;SDS011;36256;42.154;23.002;2024-03-08T09:17:55;6.38;;;3.33;;
36629;SDS011;36256;42.154;23.002;2024-03-08T09:20:22;3.38;;;2.45;;
36629;SDS011;36256;42.154;23.002;2024-03-08T09:22:48;6.22;;;3.45;;
36629;SDS011;36256;42.154;23.002;2024-03-08T09:25:15;5.25;;;3.22;;
36629;SDS011;36256;42.154;23.002;2024-03-08T09:30:09;4.93;;;2.40;;
36629;SDS011;36256;42.154;23.002;2024-03-08T09:32:39;4.45;;;2.25;;
36629;SDS011;36256;42.154;23.002;2024-03-08T09:35:06;3.70;;;2.45;;
36629;SDS011;36256;42.154;23.002;2024-03-08T09:37:34;2.92;;;2.00;;
36629;SDS011;36256;42.154;23.002;2024-03-08T09:40:01;5.45;;;2.40;;
36629;SDS011;36256;42.154;23.002;2024-03-08T09:42:31;6.07;;;2.45;;
36629;SDS011;36256;42.154;23.002;2024-03-08T09:44:58;5.07;;;2.47;;
36629;SDS011;36256;42.154;23.002;2024-03-08T09:47:25;4.75;;;2.70;;
36629;SDS011;36256;42.154;23.002;2024-03-08T09:50:00;5.00;;;2.88;;
36629;SDS011;36256;42.154;23.002;2024-03-08T09:52:27;5.75;;;3.15;;
36629;SDS011;36256;42.154;23.002;2024-03-08T09:54:57;4.97;;;2.88;;
36629;SDS011;36256;42.154;23.002;2024-03-08T09:57:24;4.05;;;2.72;;
36629;SDS011;36256;42.154;23.002;2024-03-08T09:59:52;9.38;;;3.30;;
36629;SDS011;36256;42.154;23.002;2024-03-08T10:02:19;5.75;;;2.80;;
36629;SDS011;36256;42.154;23.002;2024-03-08T10:04:47;4.35;;;2.75;;
36629;SDS011;36256;42.154;23.002;2024-03-08T10:12:13;4.43;;;2.70;;
36629;SDS011;36256;42.154;23.002;2024-03-08T10:14:41;4.40;;;2.40;;
36629;SDS011;36256;42.154;23.002;2024-03-08T10:17:08;4.80;;;2.42;;
36629;SDS011;36256;42.154;23.002;2024-03-08T10:19:36;3.83;;;2.67;;
36629;SDS011;36256;42.154;23.002;2024-03-08T10:22:02;5.13;;;2.30;;
36629;SDS011;36256;42.154;23.002;2024-03-08T10:24:30;5.80;;;2.35;;
36629;SDS011;36256;42.154;23.002;2024-03-08T10:27:03;5.20;;;2.30;;
36629;SDS011;36256;42.154;23.002;2024-03-08T10:29:33;4.65;;;2.08;;
36629;SDS011;36256;42.154;23.002;2024-03-08T10:32:00;6.28;;;2.50;;
36629;SDS011;36256;42.154;23.002;2024-03-08T10:34:28;8.70;;;2.97;;
36629;SDS011;36256;42.154;23.002;2024-03-08T10:36:56;5.47;;;2.38;;
36629;SDS011;36256;42.154;23.002;2024-03-08T10:39:34;7.65;;;2.53;;
36629;SDS011;36256;42.154;23.002;2024-03-08T10:42:02;2.65;;;1.92;;
36629;SDS011;36256;42.154;23.002;2024-03-08T10:47:19;8.10;;;5.13;;
36629;SDS011;36256;42.154;23.002;2024-03-08T10:50:11;10.43;;;3.70;;
36629;SDS011;36256;42.154;23.002;2024-03-08T10:52:50;11.48;;;4.20;;
36629;SDS011;36256;42.154;23.002;2024-03-08T10:55:19;6.82;;;3.40;;
36629;SDS011;36256;42.154;23.002;2024-03-08T10:57:49;4.05;;;2.35;;
36629;SDS011;36256;42.154;23.002;2024-03-08T11:00:15;7.18;;;2.00;;
36629;SDS011;36256;42.154;23.002;2024-03-08T11:07:40;5.03;;;2.00;;
36629;SDS011;36256;42.154;23.002;2024-03-08T11:10:18;7.40;;;1.73;;
36629;SDS011;36256;42.154;23.002;2024-03-08T11:12:46;6.32;;;1.65;;
36629;SDS011;36256;42.154;23.002;2024-03-08T11:15:14;5.82;;;1.90;;
36629;SDS011;36256;42.154;23.002;2024-03-08T11:17:46;7.60;;;1.80;;
36629;SDS011;36256;42.154;23.002;2024-03-08T11:20:16;8.43;;;1.80;;
36629;SDS011;36256;42.154;23.002;2024-03-08T11:22:48;7.57;;;2.10;;
36629;SDS011;36256;42.154;23.002;2024-03-08T11:25:37;8.50;;;2.03;;
36629;SDS011;36256;42.154;23.002;2024-03-08T11:31:36;5.30;;;2.30;;
36629;SDS011;36256;42.154;23.002;2024-03-08T11:33:39;3.00;;;1.50;;
36629;SDS011;36256;42.154;23.002;2024-03-08T11:36:10;4.20;;;1.80;;
36629;SDS011;36256;42.154;23.002;2024-03-08T11:38:43;8.75;;;1.92;;
36629;SDS011;36256;42.154;23.002;2024-03-08T11:41:10;8.73;;;1.83;;
36629;SDS011;36256;42.154;23.002;2024-03-08T11:43:44;9.43;;;2.00;;
36629;SDS011;36256;42.154;23.002;2024-03-08T11:46:12;5.45;;;2.00;;
36629;SDS011;36256;42.154;23.002;2024-03-08T11:48:40;4.72;;;2.08;;
36629;SDS011;36256;42.154;23.002;2024-03-08T11:51:14;4.75;;;1.55;;
36629;SDS011;36256;42.154;23.002;2024-03-08T11:53:42;8.88;;;1.80;;
36629;SDS011;36256;42.154;23.002;2024-03-08T11:56:13;9.15;;;1.65;;
36629;SDS011;36256;42.154;23.002;2024-03-08T11:58:41;4.80;;;1.80;;
36629;SDS011;36256;42.154;23.002;2024-03-08T12:01:11;12.82;;;3.78;;
36629;SDS011;36256;42.154;23.002;2024-03-08T12:03:41;6.93;;;2.05;;
36629;SDS011;36256;42.154;23.002;2024-03-08T12:06:11;3.92;;;1.40;;
36629;SDS011;36256;42.154;23.002;2024-03-08T12:08:40;11.55;;;1.92;;
36629;SDS011;36256;42.154;23.002;2024-03-08T12:11:06;7.55;;;2.05;;
36629;SDS011;36256;42.154;23.002;2024-03-08T12:13:33;4.00;;;1.80;;
36629;SDS011;36256;42.154;23.002;2024-03-08T12:16:04;5.20;;;2.08;;
36629;SDS011;36256;42.154;23.002;2024-03-08T12:18:37;4.75;;;1.55;;
36629;SDS011;36256;42.154;23.002;2024-03-08T12:21:08;4.05;;;1.20;;
36629;SDS011;36256;42.154;23.002;2024-03-08T12:23:37;4.85;;;1.70;;
36629;SDS011;36256;42.154;23.002;2024-03-08T12:26:09;5.28;;;1.50;;
36629;SDS011;36256;42.154;23.002;2024-03-08T12:28:40;7.13;;;1.60;;
36629;SDS011;36256;42.154;23.002;2024-03-08T12:31:11;5.75;;;1.45;;
36629;SDS011;36256;42.154;23.002;2024-03-08T12:36:22;3.55;;;1.40;;
36629;SDS011;36256;42.154;23.002;2024-03-08T12:38:49;3.95;;;1.60;;
36629;SDS011;36256;42.154;23.002;2024-03-08T12:41:19;3.88;;;1.58;;
36629;SDS011;36256;42.154;23.002;2024-03-08T12:43:47;10.57;;;1.80;;
36629;SDS011;36256;42.154;23.002;2024-03-08T12:46:15;7.07;;;1.70;;
36629;SDS011;36256;42.154;23.002;2024-03-08T12:48:43;10.90;;;1.80;;
36629;SDS011;36256;42.154;23.002;2024-03-08T12:51:13;3.72;;;1.60;;
36629;SDS011;36256;42.154;23.002;2024-03-08T12:53:42;4.65;;;1.70;;
36629;SDS011;36256;42.154;23.002;2024-03-08T12:59:00;5.97;;;1.80;;
36629;SDS011;36256;42.154;23.002;2024-03-08T13:01:28;7.72;;;1.90;;
36629;SDS011;36256;42.154;23.002;2024-03-08T13:03:56;8.43;;;1.92;;
36629;SDS011;36256;42.154;23.002;2024-03-08T13:06:22;7.10;;;1.97;;
36629;SDS011;36256;42.154;23.002;2024-03-08T13:08:51;9.93;;;2.83;;
36629;SDS011;36256;42.154;23.002;2024-03-08T13:11:22;30.70;;;8.77;;
36629;SDS011;36256;42.154;23.002;2024-03-08T13:13:50;8.35;;;3.42;;
36629;SDS011;36256;42.154;23.002;2024-03-08T13:16:19;8.13;;;1.60;;
36629;SDS011;36256;42.154;23.002;2024-03-08T13:18:46;6.50;;;1.65;;
36629;SDS011;36256;42.154;23.002;2024-03-08T13:21:20;1.88;;;1.23;;
36629;SDS011;36256;42.154;23.002;2024-03-08T13:23:50;4.80;;;1.40;;
36629;SDS011;36256;42.154;23.002;2024-03-08T13:26:19;2.50;;;1.30;;
36629;SDS011;36256;42.154;23.002;2024-03-08T13:28:46;6.47;;;1.13;;
36629;SDS011;36256;42.154;23.002;2024-03-08T13:31:20;3.00;;;1.45;;
36629;SDS011;36256;42.154;23.002;2024-03-08T13:36:14;6.38;;;1.45;;
36629;SDS011;36256;42.154;23.002;2024-03-08T13:38:45;3.50;;;1.40;;
36629;SDS011;36256;42.154;23.002;2024-03-08T13:41:14;5.28;;;2.00;;
36629;SDS011;36256;42.154;23.002;2024-03-08T13:43:45;4.75;;;1.77;;
36629;SDS011;36256;42.154;23.002;2024-03-08T13:46:13;4.65;;;1.50;;
36629;SDS011;36256;42.154;23.002;2024-03-08T13:48:40;17.20;;;7.35;;
36629;SDS011;36256;42.154;23.002;2024-03-08T13:53:36;2.72;;;1.23;;
36629;SDS011;36256;42.154;23.002;2024-03-08T13:56:03;7.97;;;1.00;;
36629;SDS011;36256;42.154;23.002;2024-03-08T13:58:32;2.30;;;1.10;;
36629;SDS011;36256;42.154;23.002;2024-03-08T14:00:58;3.33;;;1.20;;
36629;SDS011;36256;42.154;23.002;2024-03-08T14:03:27;4.50;;;1.52;;
36629;SDS011;36256;42.154;23.002;2024-03-08T14:05:53;5.28;;;2.05;;
36629;SDS011;36256;42.154;23.002;2024-03-08T14:08:22;3.28;;;1.88;;
36629;SDS011;36256;42.154;23.002;2024-03-08T14:10:49;2.90;;;1.50;;
36629;SDS011;36256;42.154;23.002;2024-03-08T14:13:17;4.95;;;1.45;;
36629;SDS011;36256;42.154;23.002;2024-03-08T14:15:45;8.63;;;2.15;;
36629;SDS011;36256;42.154;23.002;2024-03-08T14:18:12;7.43;;;1.52;;
36629;SDS011;36256;42.154;23.002;2024-03-08T14:20:40;7.45;;;1.85;;
36629;SDS011;36256;42.154;23.002;2024-03-08T14:23:08;4.97;;;1.85;;
36629;SDS011;36256;42.154;23.002;2024-03-08T14:25:35;6.28;;;1.35;;
36629;SDS011;36256;42.154;23.002;2024-03-08T14:28:02;4.43;;;1.30;;
36629;SDS011;36256;42.154;23.002;2024-03-08T14:30:33;5.25;;;1.27;;
36629;SDS011;36256;42.154;23.002;2024-03-08T14:33:02;7.22;;;1.45;;
36629;SDS011;36256;42.154;23.002;2024-03-08T14:37:56;4.22;;;2.15;;
36629;SDS011;36256;42.154;23.002;2024-03-08T14:40:26;3.03;;;1.67;;
36629;SDS011;36256;42.154;23.002;2024-03-08T14:42:53;3.50;;;1.73;;
36629;SDS011;36256;42.154;23.002;2024-03-08T14:45:20;4.80;;;2.10;;
36629;SDS011;36256;42.154;23.002;2024-03-08T14:47:47;7.15;;;4.07;;
36629;SDS011;36256;42.154;23.002;2024-03-08T14:50:18;7.28;;;5.20;;
36629;SDS011;36256;42.154;23.002;2024-03-08T14:52:52;4.70;;;2.05;;
36629;SDS011;36256;42.154;23.002;2024-03-08T14:55:19;5.50;;;2.40;;
36629;SDS011;36256;42.154;23.002;2024-03-08T14:57:48;3.25;;;2.05;;
36629;SDS011;36256;42.154;23.002;2024-03-08T15:00:20;5.00;;;1.88;;
36629;SDS011;36256;42.154;23.002;2024-03-08T15:02:53;4.15;;;1.80;;
36629;SDS011;36256;42.154;23.002;2024-03-08T15:05:20;5.47;;;2.08;;
36629;SDS011;36256;42.154;23.002;2024-03-08T15:07:53;4.35;;;1.88;;
36629;SDS011;36256;42.154;23.002;2024-03-08T15:10:21;4.65;;;1.67;;
36629;SDS011;36256;42.154;23.002;2024-03-08T15:12:51;4.22;;;2.22;;
36629;SDS011;36256;42.154;23.002;2024-03-08T15:15:26;3.63;;;1.98;;
36629;SDS011;36256;42.154;23.002;2024-03-08T15:17:52;4.05;;;2.03;;
36629;SDS011;36256;42.154;23.002;2024-03-08T15:20:23;4.43;;;2.00;;
36629;SDS011;36256;42.154;23.002;2024-03-08T15:22:55;8.40;;;3.53;;
36629;SDS011;36256;42.154;23.002;2024-03-08T15:25:25;5.68;;;3.40;;